Terminal Aerodrome Forecast
Issued by NWS

Home | Current Version | Previous Version | Text Only | Print | Product List | Glossary On
Versions: 1 2 3 4 5 6 7 8 9 10 11 12 13 14 15 16 17 18 19 20 21 22 23 24 25 26
366
FTUS43 KMPX 242339
TAFAXN
TAF
KAXN 242339Z 2500/2524 30010KT P6SM BKN008
     FM250200 30009KT 6SM BR VCSH BKN004 OVC007
     FM250500 33008KT 4SM -DZ BR OVC003
     FM251800 35010KT 6SM SHRA OVC012=

USA.gov is the U.S. government's official web portal to all federal, state and local government web resources and services.